createdAt,value
2018-07-13T00:00:58.139Z,3.30
2018-07-13T00:03:30.484Z,3.53
2018-07-13T00:06:02.953Z,4.27
2018-07-13T00:08:35.295Z,3.83
2018-07-13T00:11:08.028Z,3.90
2018-07-13T00:17:09.453Z,3.50
2018-07-13T00:19:41.863Z,3.30
2018-07-13T00:22:14.407Z,3.90
2018-07-13T00:28:23.894Z,3.93
2018-07-13T00:30:59.712Z,3.80
2018-07-13T00:33:32.350Z,2.90
2018-07-13T00:39:35.947Z,5.23
2018-07-13T00:42:14.136Z,3.43
2018-07-13T00:44:46.974Z,4.13
2018-07-13T00:47:19.979Z,3.97
2018-07-13T00:49:52.797Z,5.33
2018-07-13T00:52:26.024Z,4.73
2018-07-13T00:55:02.455Z,4.00
2018-07-13T01:00:56.129Z,3.90
2018-07-13T01:03:28.497Z,4.97
2018-07-13T01:06:00.911Z,4.57
2018-07-13T01:08:33.497Z,5.17
2018-07-13T01:11:08.268Z,5.10
2018-07-13T01:13:40.473Z,5.07
2018-07-13T01:16:16.899Z,5.30
2018-07-13T01:18:49.239Z,4.50
2018-07-13T01:21:22.180Z,5.40
2018-07-13T01:27:29.270Z,4.60
2018-07-13T01:30:05.901Z,3.93
2018-07-13T01:32:42.299Z,3.90
2018-07-13T01:38:42.485Z,4.73
2018-07-13T01:41:47.294Z,4.80
2018-07-13T01:44:20.311Z,4.53
2018-07-13T01:46:53.196Z,4.87
2018-07-13T01:49:26.243Z,4.47
2018-07-13T01:51:59.557Z,5.23
2018-07-13T01:54:32.826Z,4.87
2018-07-13T01:57:05.712Z,4.00
2018-07-13T01:59:41.675Z,5.10
2018-07-13T02:02:15.119Z,5.93
2018-07-13T02:04:48.053Z,4.93
2018-07-13T02:07:23.661Z,4.67
2018-07-13T02:13:17.430Z,5.47
2018-07-13T02:15:49.703Z,6.50
2018-07-13T02:18:21.982Z,5.40
2018-07-13T02:20:54.283Z,5.37
2018-07-13T02:23:26.513Z,5.13
2018-07-13T02:25:58.814Z,5.20
2018-07-13T02:28:31.049Z,5.70
2018-07-13T02:31:03.394Z,4.77
2018-07-13T02:33:35.835Z,4.77
2018-07-13T02:36:10.383Z,4.37
2018-07-13T02:39:27.628Z,3.87
2018-07-13T02:42:00.746Z,5.30
2018-07-13T02:44:33.501Z,4.43
2018-07-13T02:47:18.180Z,5.10
2018-07-13T02:49:50.840Z,4.93
2018-07-13T02:52:26.999Z,5.37
2018-07-13T02:54:59.532Z,4.67
2018-07-13T02:57:32.136Z,4.47
2018-07-13T03:00:05.734Z,4.80
2018-07-13T03:02:39.980Z,3.73
2018-07-13T03:05:13.691Z,4.13
2018-07-13T03:07:48.015Z,4.40
2018-07-13T03:10:20.562Z,4.93
2018-07-13T03:12:54.032Z,5.03
2018-07-13T03:15:27.200Z,4.50
2018-07-13T03:17:59.651Z,3.60
2018-07-13T03:20:33.031Z,4.40
2018-07-13T03:23:05.463Z,3.53
2018-07-13T03:25:37.863Z,3.70
2018-07-13T03:28:11.026Z,4.83
2018-07-13T03:30:43.492Z,4.73
2018-07-13T03:33:15.981Z,5.67
2018-07-13T03:35:48.406Z,4.83
2018-07-13T03:38:20.819Z,5.10
2018-07-13T03:40:53.281Z,5.00
2018-07-13T03:43:25.760Z,5.30
2018-07-13T03:45:58.421Z,5.03
2018-07-13T03:48:31.627Z,5.47
2018-07-13T03:51:04.430Z,5.80
2018-07-13T03:53:37.073Z,5.67
2018-07-13T03:56:09.825Z,5.33
2018-07-13T03:58:42.422Z,4.93
2018-07-13T04:01:18.036Z,4.20
2018-07-13T04:03:54.494Z,5.13
2018-07-13T04:06:29.605Z,5.33
2018-07-13T04:09:04.746Z,4.93
2018-07-13T04:11:39.791Z,5.57
2018-07-13T04:14:15.231Z,4.47
2018-07-13T04:16:48.107Z,4.57
2018-07-13T04:19:20.597Z,4.57
2018-07-13T04:21:53.350Z,4.70
2018-07-13T04:24:26.255Z,4.37
2018-07-13T04:26:59.375Z,4.33
2018-07-13T04:29:32.332Z,4.33
2018-07-13T04:32:04.998Z,4.33
2018-07-13T04:34:38.280Z,4.57
2018-07-13T04:37:11.319Z,4.87
2018-07-13T04:39:43.759Z,4.97
2018-07-13T04:42:16.234Z,4.43
2018-07-13T04:44:48.746Z,3.83
2018-07-13T04:47:21.395Z,4.27
2018-07-13T04:49:54.483Z,4.70
2018-07-13T04:52:27.623Z,4.30
2018-07-13T04:55:00.294Z,3.93
2018-07-13T04:57:33.089Z,4.60
2018-07-13T05:00:06.217Z,4.20
2018-07-13T05:02:39.566Z,4.23
2018-07-13T05:05:12.267Z,3.77
2018-07-13T05:07:45.414Z,4.63
2018-07-13T05:10:18.181Z,4.37
2018-07-13T05:12:50.621Z,4.37
2018-07-13T05:18:54.427Z,4.40
2018-07-13T05:21:27.408Z,3.97
2018-07-13T05:27:20.729Z,3.80
2018-07-13T05:29:53.544Z,3.87
2018-07-13T05:32:26.866Z,3.63
2018-07-13T05:35:00.496Z,4.10
2018-07-13T05:37:33.586Z,4.30
2018-07-13T05:40:06.794Z,4.37
2018-07-13T05:42:39.440Z,5.90
2018-07-13T05:45:11.945Z,5.50
2018-07-13T05:48:28.263Z,5.13
2018-07-13T05:51:01.376Z,5.00
2018-07-13T05:53:34.461Z,5.47
2018-07-13T05:56:07.728Z,5.77
2018-07-13T05:58:40.602Z,7.10
2018-07-13T06:01:13.239Z,5.73
2018-07-13T06:03:45.850Z,5.30
2018-07-13T06:06:18.547Z,6.57
2018-07-13T06:08:51.196Z,5.73
2018-07-13T06:11:23.833Z,5.73
2018-07-13T06:13:56.735Z,5.60
2018-07-13T06:16:29.099Z,5.07
2018-07-13T06:19:02.220Z,5.37
2018-07-13T06:21:34.627Z,4.80
2018-07-13T06:24:07.901Z,5.03
2018-07-13T06:26:40.296Z,5.47
2018-07-13T06:29:12.613Z,4.80
2018-07-13T06:31:45.007Z,4.50
2018-07-13T06:34:17.373Z,4.80
2018-07-13T06:36:49.519Z,4.37
2018-07-13T06:39:21.963Z,4.10
2018-07-13T06:41:55.251Z,4.50
2018-07-13T06:44:27.822Z,4.40
2018-07-13T06:47:00.253Z,4.77
2018-07-13T06:49:32.753Z,3.93
2018-07-13T06:52:05.195Z,3.47
2018-07-13T06:54:37.527Z,4.00
2018-07-13T06:57:10.143Z,4.83
2018-07-13T06:59:42.545Z,4.70
2018-07-13T07:02:23.418Z,5.00
2018-07-13T07:05:05.666Z,3.80
2018-07-13T07:07:38.036Z,4.13
2018-07-13T07:10:10.700Z,5.80
2018-07-13T07:13:03.751Z,5.70
2018-07-13T07:15:36.165Z,4.97
2018-07-13T07:18:08.918Z,5.40
2018-07-13T07:20:41.389Z,6.20
2018-07-13T07:23:13.792Z,4.53
2018-07-13T07:25:46.431Z,5.13
2018-07-13T07:28:18.951Z,4.87
2018-07-13T07:30:49.982Z,4.93
2018-07-13T07:33:22.398Z,5.60
2018-07-13T07:35:54.964Z,5.20
2018-07-13T07:38:28.158Z,5.33
2018-07-13T07:41:00.763Z,4.60
2018-07-13T07:43:33.190Z,4.90
2018-07-13T07:46:05.502Z,5.00
2018-07-13T07:48:38.014Z,5.70
2018-07-13T07:51:10.391Z,5.03
2018-07-13T07:53:42.719Z,4.03
2018-07-13T07:59:36.330Z,3.67
2018-07-13T08:02:09.260Z,3.47
2018-07-13T08:05:10.138Z,3.87
2018-07-13T08:07:42.707Z,2.60
2018-07-13T08:10:15.343Z,2.90
2018-07-13T08:12:47.808Z,3.17
2018-07-13T08:15:20.364Z,2.90
2018-07-13T08:17:52.928Z,2.83
2018-07-13T08:20:39.802Z,3.10
2018-07-13T08:23:13.131Z,3.30
2018-07-13T08:25:47.255Z,3.07
2018-07-13T08:28:21.400Z,3.20
2018-07-13T08:30:56.361Z,3.73
2018-07-13T08:33:28.867Z,3.20
2018-07-13T08:36:01.300Z,3.33
2018-07-13T08:38:33.761Z,3.10
2018-07-13T08:41:06.335Z,3.20
2018-07-13T08:43:39.155Z,3.00
2018-07-13T08:46:11.901Z,3.20
2018-07-13T08:48:44.397Z,3.33
2018-07-13T08:51:16.986Z,2.57
2018-07-13T08:53:49.651Z,3.10
2018-07-13T08:56:22.414Z,2.10
2018-07-13T08:59:30.638Z,2.70
2018-07-13T09:02:02.961Z,2.87
2018-07-13T09:04:35.536Z,2.67
2018-07-13T09:07:07.990Z,3.03
2018-07-13T09:09:40.398Z,2.50
2018-07-13T09:12:12.903Z,2.27
2018-07-13T09:14:45.115Z,2.40
2018-07-13T09:17:17.611Z,2.50
2018-07-13T09:19:50.142Z,3.17
2018-07-13T09:25:43.516Z,2.73
2018-07-13T09:28:15.755Z,2.97
2018-07-13T09:30:48.280Z,2.83
2018-07-13T09:33:20.709Z,2.60
2018-07-13T09:35:53.274Z,3.00
2018-07-13T09:38:25.693Z,3.20
2018-07-13T09:40:58.054Z,3.33
2018-07-13T09:43:30.453Z,2.80
2018-07-13T09:46:03.129Z,2.60
2018-07-13T09:48:35.520Z,2.47
2018-07-13T09:51:07.972Z,2.60
2018-07-13T09:53:40.705Z,3.23
2018-07-13T09:56:13.207Z,3.00
2018-07-13T09:58:45.582Z,3.03
2018-07-13T10:01:24.449Z,3.73
2018-07-13T10:03:56.885Z,2.90
2018-07-13T10:06:29.148Z,2.73
2018-07-13T10:09:01.732Z,2.70
2018-07-13T10:11:34.315Z,3.10
2018-07-13T10:14:06.709Z,2.60
2018-07-13T10:16:39.264Z,3.20
2018-07-13T10:19:11.731Z,3.00
2018-07-13T10:25:15.292Z,5.53
2018-07-13T10:27:48.327Z,6.20
2018-07-13T10:30:21.382Z,3.87
2018-07-13T10:32:54.299Z,4.17
2018-07-13T10:38:34.313Z,4.80
2018-07-13T10:41:06.534Z,4.00
2018-07-13T10:43:38.838Z,4.27
2018-07-13T10:46:11.284Z,6.50
2018-07-13T10:48:43.414Z,9.87
2018-07-13T10:51:15.492Z,10.43
2018-07-13T10:53:47.762Z,9.67
2018-07-13T10:56:19.894Z,7.27
2018-07-13T10:58:52.151Z,10.03
2018-07-13T11:01:24.377Z,14.37
2018-07-13T11:03:56.461Z,9.73
2018-07-13T11:06:28.558Z,7.00
2018-07-13T11:09:00.801Z,6.90
2018-07-13T11:11:32.942Z,6.27
2018-07-13T11:14:05.346Z,7.50
2018-07-13T11:16:37.537Z,5.97
2018-07-13T11:19:09.669Z,5.27
2018-07-13T11:21:41.890Z,4.00
2018-07-13T11:24:14.010Z,5.13
2018-07-13T11:33:38.160Z,4.63
2018-07-13T11:36:10.474Z,4.80
2018-07-13T11:38:42.771Z,4.50
2018-07-13T11:41:15.013Z,8.63
2018-07-13T11:43:46.062Z,7.27
2018-07-13T11:46:18.728Z,6.57
2018-07-13T11:48:50.958Z,5.73
2018-07-13T11:51:23.235Z,4.90
2018-07-13T11:53:55.529Z,4.60
2018-07-13T11:56:27.757Z,4.60
2018-07-13T11:59:35.873Z,3.90
2018-07-13T12:02:08.292Z,4.93
2018-07-13T12:04:40.759Z,3.77
2018-07-13T12:07:13.097Z,3.77
2018-07-13T12:13:06.259Z,4.60
2018-07-13T12:15:39.194Z,4.60
2018-07-13T12:18:12.779Z,5.40
2018-07-13T12:20:45.288Z,5.73
2018-07-13T12:23:19.153Z,4.40
2018-07-13T12:25:51.821Z,6.10
2018-07-13T12:28:26.694Z,5.13
2018-07-13T12:30:59.825Z,5.57
2018-07-13T12:33:32.963Z,6.40
2018-07-13T12:36:05.848Z,6.83
2018-07-13T12:38:38.425Z,5.37
2018-07-13T12:41:11.084Z,4.63
2018-07-13T12:43:43.487Z,4.83
2018-07-13T12:46:14.654Z,5.03
2018-07-13T12:48:47.294Z,4.37
2018-07-13T12:51:20.165Z,4.03
2018-07-13T12:53:52.750Z,5.17
2018-07-13T12:56:25.587Z,3.57
2018-07-13T12:59:06.501Z,3.70
2018-07-13T13:01:38.939Z,3.87
2018-07-13T13:04:12.339Z,3.80
2018-07-13T13:06:45.700Z,3.70
2018-07-13T13:09:18.524Z,3.97
2018-07-13T13:11:51.144Z,3.80
2018-07-13T13:14:24.948Z,4.57
2018-07-13T13:16:57.450Z,3.50
2018-07-13T13:19:29.895Z,4.50
2018-07-13T13:22:02.460Z,4.60
2018-07-13T13:24:34.963Z,3.30
2018-07-13T13:27:07.672Z,4.33
2018-07-13T13:29:40.898Z,3.10
2018-07-13T13:32:15.490Z,2.90
2018-07-13T13:34:48.420Z,3.73
2018-07-13T13:37:27.504Z,4.27
2018-07-13T13:40:00.926Z,3.73
2018-07-13T13:42:33.313Z,3.27
2018-07-13T13:45:06.198Z,2.80
2018-07-13T13:47:38.632Z,2.97
2018-07-13T13:50:11.435Z,2.90
2018-07-13T13:52:43.907Z,3.10
2018-07-13T13:55:16.394Z,3.50
2018-07-13T13:57:48.810Z,3.97
2018-07-13T14:00:20.050Z,3.63
2018-07-13T14:02:52.535Z,4.27
2018-07-13T14:05:25.220Z,2.90
2018-07-13T14:07:57.986Z,4.20
2018-07-13T14:10:30.484Z,3.70
2018-07-13T14:13:02.888Z,4.73
2018-07-13T14:15:35.456Z,4.47
2018-07-13T14:21:29.252Z,3.87
2018-07-13T14:24:01.537Z,3.40
2018-07-13T14:26:33.920Z,2.73
2018-07-13T14:29:08.142Z,3.13
2018-07-13T14:31:40.554Z,3.57
2018-07-13T14:34:13.136Z,4.03
2018-07-13T14:36:45.538Z,3.53
2018-07-13T14:39:18.732Z,3.40
2018-07-13T14:41:50.880Z,3.03
2018-07-13T14:44:23.696Z,3.83
2018-07-13T14:46:55.953Z,4.03
2018-07-13T14:49:29.093Z,3.40
2018-07-13T14:52:01.353Z,2.90
2018-07-13T14:54:33.596Z,3.07
2018-07-13T14:57:06.229Z,3.40
2018-07-13T14:59:38.509Z,3.60
2018-07-13T15:02:15.317Z,3.23
2018-07-13T15:04:47.543Z,4.00
2018-07-13T15:07:22.380Z,2.60
2018-07-13T15:09:54.694Z,3.40
2018-07-13T15:12:27.694Z,4.47
2018-07-13T15:18:21.727Z,6.23
2018-07-13T15:20:54.227Z,6.87
2018-07-13T15:23:26.480Z,5.20
2018-07-13T15:25:57.646Z,8.70
2018-07-13T15:28:30.906Z,5.13
2018-07-13T15:34:35.027Z,4.70
2018-07-13T15:37:07.705Z,4.73
2018-07-13T15:39:40.931Z,5.63
2018-07-13T15:42:14.122Z,5.60
2018-07-13T15:44:48.460Z,4.80
2018-07-13T15:47:41.518Z,4.03
2018-07-13T15:50:15.000Z,6.23
2018-07-13T15:52:48.764Z,5.17
2018-07-13T15:55:26.133Z,3.63
2018-07-13T15:58:00.211Z,6.40
2018-07-13T16:00:33.836Z,4.50
2018-07-13T16:03:07.191Z,4.90
2018-07-13T16:05:46.236Z,8.40
2018-07-13T16:08:18.933Z,4.37
2018-07-13T16:10:51.784Z,8.10
2018-07-13T16:13:24.840Z,5.03
2018-07-13T16:15:57.467Z,5.83
2018-07-13T16:18:30.823Z,9.07
2018-07-13T16:21:03.369Z,5.33
2018-07-13T16:23:36.289Z,4.93
2018-07-13T16:26:10.276Z,4.97
2018-07-13T16:28:44.363Z,4.93
2018-07-13T16:31:17.116Z,3.67
2018-07-13T16:33:50.151Z,4.37
2018-07-13T16:36:25.776Z,4.50
2018-07-13T16:38:59.679Z,3.83
2018-07-13T16:41:32.658Z,4.42
2018-07-13T16:44:08.393Z,4.10
2018-07-13T16:46:42.825Z,4.07
2018-07-13T16:56:07.149Z,3.97
2018-07-13T16:59:27.986Z,3.98
2018-07-13T17:02:03.376Z,3.60
2018-07-13T17:04:36.597Z,4.00
2018-07-13T17:07:10.103Z,5.30
2018-07-13T17:09:44.716Z,4.42
2018-07-13T17:12:18.692Z,4.05
2018-07-13T17:14:54.861Z,5.67
2018-07-13T17:17:28.174Z,4.40
2018-07-13T17:20:03.287Z,5.40
2018-07-13T17:22:35.183Z,4.58
2018-07-13T17:25:09.208Z,4.43
2018-07-13T17:27:42.989Z,4.97
2018-07-13T17:30:16.279Z,4.57
2018-07-13T17:32:52.435Z,7.80
2018-07-13T17:35:27.270Z,7.87
2018-07-13T17:38:01.834Z,6.10
2018-07-13T17:40:35.137Z,8.33
2018-07-13T17:43:09.740Z,5.60
2018-07-13T17:45:43.872Z,5.83
2018-07-13T17:48:17.893Z,5.90
2018-07-13T17:50:50.111Z,5.93
2018-07-13T17:53:24.198Z,5.73
2018-07-13T17:56:03.895Z,5.93
2018-07-13T17:58:37.045Z,7.40
2018-07-13T18:01:10.920Z,6.72
2018-07-13T18:03:44.621Z,6.80
2018-07-13T18:06:17.904Z,5.95
2018-07-13T18:08:51.648Z,6.90
2018-07-13T18:11:28.972Z,6.40
2018-07-13T18:14:02.019Z,6.97
2018-07-13T18:19:56.739Z,7.20
2018-07-13T18:22:30.154Z,6.40
2018-07-13T18:25:02.381Z,6.50
2018-07-13T18:27:36.471Z,6.47
2018-07-13T18:30:13.334Z,8.80
2018-07-13T18:32:45.998Z,7.03
2018-07-13T18:35:18.256Z,6.47
2018-07-13T18:37:50.552Z,6.90
2018-07-13T18:40:22.897Z,8.47
2018-07-13T18:42:55.308Z,8.10
2018-07-13T18:45:27.566Z,9.17
2018-07-13T18:48:01.467Z,7.23
2018-07-13T18:50:33.842Z,6.07
2018-07-13T18:53:06.217Z,8.37
2018-07-13T18:55:38.853Z,9.60
2018-07-13T18:58:14.275Z,7.27
2018-07-13T19:00:46.877Z,5.70
2018-07-13T19:03:21.203Z,7.47
2018-07-13T19:05:54.596Z,6.28
2018-07-13T19:08:27.495Z,9.70
2018-07-13T19:11:02.556Z,5.57
2018-07-13T19:13:34.962Z,11.45
2018-07-13T19:16:08.256Z,8.68
2018-07-13T19:18:40.536Z,8.40
2018-07-13T19:21:12.783Z,9.23
2018-07-13T19:23:45.555Z,6.17
2018-07-13T19:29:41.753Z,10.55
2018-07-13T19:32:15.332Z,9.57
2018-07-13T19:34:55.096Z,8.00
2018-07-13T19:37:28.155Z,6.63
2018-07-13T19:40:01.284Z,10.00
2018-07-13T19:42:34.659Z,10.32
2018-07-13T19:45:09.328Z,7.37
2018-07-13T19:47:42.935Z,7.03
2018-07-13T19:50:17.636Z,7.22
2018-07-13T19:52:50.136Z,6.37
2018-07-13T19:55:22.547Z,7.62
2018-07-13T19:58:02.579Z,9.75
2018-07-13T20:00:35.179Z,9.50
2018-07-13T20:03:08.787Z,6.35
2018-07-13T20:05:42.470Z,6.03
2018-07-13T20:08:16.630Z,7.37
2018-07-13T20:10:49.273Z,7.37
2018-07-13T20:13:21.569Z,7.93
2018-07-13T20:15:53.805Z,7.33
2018-07-13T20:18:28.068Z,6.13
2018-07-13T20:21:01.548Z,7.35
2018-07-13T20:23:37.167Z,6.97
2018-07-13T20:26:11.910Z,7.37
2018-07-13T20:28:47.191Z,5.70
2018-07-13T20:31:19.713Z,6.37
2018-07-13T20:33:53.425Z,7.00
2018-07-13T20:36:34.328Z,8.18
2018-07-13T20:39:10.856Z,7.67
2018-07-13T20:41:46.731Z,6.90
2018-07-13T20:44:19.009Z,7.03
2018-07-13T20:46:52.082Z,7.55
2018-07-13T20:49:24.418Z,6.45
2018-07-13T20:51:56.646Z,6.33
2018-07-13T20:54:30.193Z,7.50
2018-07-13T20:57:02.999Z,6.87
2018-07-13T20:59:37.679Z,6.67
2018-07-13T21:02:10.442Z,6.67
2018-07-13T21:04:44.632Z,6.60
2018-07-13T21:07:17.427Z,7.40
2018-07-13T21:10:05.099Z,7.60
2018-07-13T21:12:39.858Z,5.85
2018-07-13T21:15:12.446Z,6.90
2018-07-13T21:17:45.218Z,8.13
2018-07-13T21:20:18.785Z,8.65
2018-07-13T21:22:52.157Z,5.95
2018-07-13T21:25:25.072Z,6.42
2018-07-13T21:27:57.356Z,7.00
2018-07-13T21:30:29.626Z,6.10
2018-07-13T21:33:02.134Z,7.40
2018-07-13T21:35:34.773Z,6.47
2018-07-13T21:38:08.261Z,6.70
2018-07-13T21:40:41.659Z,7.28
2018-07-13T21:43:13.970Z,7.20
2018-07-13T21:45:46.253Z,7.25
2018-07-13T21:48:19.704Z,6.90
2018-07-13T21:50:52.531Z,6.97
2018-07-13T21:53:24.662Z,5.50
2018-07-13T21:55:56.779Z,7.63
2018-07-13T21:58:29.092Z,7.50
2018-07-13T22:01:01.254Z,7.55
2018-07-13T22:03:33.422Z,7.60
2018-07-13T22:06:05.695Z,7.20
2018-07-13T22:08:38.302Z,5.77
2018-07-13T22:11:10.881Z,7.10
2018-07-13T22:13:43.336Z,5.92
2018-07-13T22:16:15.349Z,6.70
2018-07-13T22:18:47.589Z,9.05
2018-07-13T22:21:19.855Z,5.78
2018-07-13T22:23:51.974Z,6.83
2018-07-13T22:26:31.384Z,7.07
2018-07-13T22:29:03.632Z,5.97
2018-07-13T22:31:35.735Z,6.83
2018-07-13T22:34:08.375Z,7.10
2018-07-13T22:36:41.495Z,7.07
2018-07-13T22:39:13.721Z,6.70
2018-07-13T22:41:46.302Z,6.67
2018-07-13T22:44:18.473Z,6.90
2018-07-13T22:46:51.490Z,6.10
2018-07-13T22:49:23.641Z,6.23
2018-07-13T22:51:55.776Z,8.13
2018-07-13T22:54:28.058Z,6.53
2018-07-13T22:57:00.110Z,7.33
2018-07-13T22:59:32.296Z,32.90
2018-07-13T23:02:05.887Z,33.73
2018-07-13T23:04:37.854Z,9.90
2018-07-13T23:07:10.145Z,17.43
2018-07-13T23:09:42.350Z,15.57
2018-07-13T23:12:14.705Z,8.97
2018-07-13T23:14:46.952Z,8.57
2018-07-13T23:17:19.096Z,12.67
2018-07-13T23:19:51.302Z,15.77
2018-07-13T23:22:23.489Z,17.53
2018-07-13T23:24:55.622Z,9.20
2018-07-13T23:27:27.768Z,16.40
2018-07-13T23:33:20.955Z,17.03
2018-07-13T23:35:51.871Z,23.00
2018-07-13T23:38:24.276Z,16.47
2018-07-13T23:40:56.559Z,20.37
2018-07-13T23:43:28.946Z,12.27
2018-07-13T23:46:01.213Z,8.50
2018-07-13T23:48:33.576Z,11.27
2018-07-13T23:51:05.768Z,14.50
2018-07-13T23:53:38.095Z,14.77
2018-07-13T23:56:10.361Z,8.87
2018-07-13T23:58:42.686Z,8.10
